createdAt,value
2018-11-14T00:00:04.521Z,91.00
2018-11-14T00:02:34.643Z,90.98
2018-11-14T00:05:04.384Z,91.20
2018-11-14T00:07:34.352Z,91.29
2018-11-14T00:10:04.829Z,91.04
2018-11-14T00:12:35.372Z,90.91
2018-11-14T00:15:05.689Z,90.76
2018-11-14T00:17:36.688Z,90.82
2018-11-14T00:20:08.371Z,90.32
2018-11-14T00:22:38.661Z,91.03
2018-11-14T00:25:08.501Z,90.80
2018-11-14T00:27:38.473Z,90.96
2018-11-14T00:30:13.583Z,91.32
2018-11-14T00:32:44.025Z,91.01
2018-11-14T00:35:14.790Z,91.29
2018-11-14T00:37:45.409Z,91.20
2018-11-14T00:40:16.892Z,90.82
2018-11-14T00:42:47.412Z,91.12
2018-11-14T00:45:19.606Z,90.10
2018-11-14T00:47:50.379Z,90.03
2018-11-14T00:50:21.780Z,90.68
2018-11-14T00:52:53.178Z,91.01
2018-11-14T00:55:23.477Z,91.30
2018-11-14T00:57:53.636Z,91.06
2018-11-14T01:00:25.243Z,91.12
2018-11-14T01:02:55.562Z,91.25
2018-11-14T01:05:25.904Z,91.08
2018-11-14T01:07:55.649Z,91.07
2018-11-14T01:10:26.116Z,90.80
2018-11-14T01:12:55.844Z,90.95
2018-11-14T01:15:25.739Z,90.59
2018-11-14T01:17:55.560Z,91.04
2018-11-14T01:20:25.368Z,91.00
2018-11-14T01:22:55.152Z,91.05
2018-11-14T01:25:25.025Z,90.74
2018-11-14T01:27:54.791Z,90.33
2018-11-14T01:30:25.351Z,91.22
2018-11-14T01:32:55.392Z,91.20
2018-11-14T01:35:25.244Z,91.36
2018-11-14T01:37:54.996Z,91.12
2018-11-14T01:40:25.854Z,90.30
2018-11-14T01:42:57.029Z,90.37
2018-11-14T01:45:26.862Z,90.53
2018-11-14T01:47:56.590Z,90.73
2018-11-14T01:50:26.425Z,90.31
2018-11-14T01:52:56.190Z,90.88
2018-11-14T01:55:26.050Z,91.10
2018-11-14T01:57:55.868Z,91.02
2018-11-14T02:00:26.060Z,91.75
2018-11-14T02:02:55.935Z,91.01
2018-11-14T02:05:25.848Z,90.29
2018-11-14T02:07:55.612Z,91.17
2018-11-14T02:10:25.448Z,91.25
2018-11-14T02:12:55.252Z,91.19
2018-11-14T02:15:25.248Z,90.95
2018-11-14T02:17:54.991Z,90.83
2018-11-14T02:20:24.857Z,91.28
2018-11-14T02:22:54.627Z,90.02
2018-11-14T02:25:24.488Z,89.87
2018-11-14T02:27:54.328Z,90.25
2018-11-14T02:30:24.788Z,90.36
2018-11-14T02:32:54.547Z,90.20
2018-11-14T02:35:24.402Z,90.24
2018-11-14T02:37:54.183Z,90.33
2018-11-14T02:40:24.060Z,90.34
2018-11-14T02:42:53.886Z,89.83
2018-11-14T02:45:23.702Z,89.89
2018-11-14T02:47:53.524Z,89.22
2018-11-14T02:50:23.444Z,89.12
2018-11-14T02:52:53.218Z,90.06
2018-11-14T02:55:23.056Z,90.74
2018-11-14T02:57:52.928Z,90.37
2018-11-14T03:00:22.922Z,90.92
2018-11-14T03:02:52.724Z,90.25
2018-11-14T03:05:22.686Z,91.22
2018-11-14T03:07:52.548Z,90.83
2018-11-14T03:10:22.692Z,91.10
2018-11-14T03:12:52.540Z,91.11
2018-11-14T03:15:23.379Z,90.23
2018-11-14T03:17:53.238Z,90.41
2018-11-14T03:20:23.051Z,90.43
2018-11-14T03:22:52.884Z,90.91
2018-11-14T03:25:22.788Z,90.56
2018-11-14T03:27:52.572Z,91.19
2018-11-14T03:30:22.434Z,91.93
2018-11-14T03:32:52.263Z,91.93
2018-11-14T03:35:22.188Z,91.61
2018-11-14T03:37:52.084Z,92.08
2018-11-14T03:40:21.996Z,90.92
2018-11-14T03:42:51.816Z,91.97
2018-11-14T03:45:21.624Z,91.73
2018-11-14T03:47:51.588Z,91.64
2018-11-14T03:50:21.458Z,91.18
2018-11-14T03:52:51.421Z,91.61
2018-11-14T03:55:21.282Z,91.36
2018-11-14T03:57:51.071Z,92.13
2018-11-14T04:00:20.970Z,92.43
2018-11-14T04:02:50.851Z,92.58
2018-11-14T04:05:20.670Z,92.78
2018-11-14T04:07:50.523Z,91.06
2018-11-14T04:10:20.441Z,91.88
2018-11-14T04:12:50.308Z,92.30
2018-11-14T04:15:20.187Z,92.11
2018-11-14T04:17:50.084Z,92.39
2018-11-14T04:20:19.969Z,92.02
2018-11-14T04:22:49.876Z,92.19
2018-11-14T04:25:20.591Z,91.53
2018-11-14T04:27:50.544Z,90.93
2018-11-14T04:30:21.719Z,91.64
2018-11-14T04:32:51.614Z,91.16
2018-11-14T04:35:21.978Z,90.79
2018-11-14T04:37:51.870Z,91.18
2018-11-14T04:40:23.153Z,91.04
2018-11-14T04:42:53.122Z,90.82
2018-11-14T04:45:24.266Z,90.86
2018-11-14T04:47:54.283Z,90.60
2018-11-14T04:50:26.313Z,90.17
2018-11-14T04:52:56.520Z,90.12
2018-11-14T04:55:27.108Z,90.37
2018-11-14T04:57:56.880Z,89.78
2018-11-14T05:00:27.193Z,89.24
2018-11-14T05:02:56.963Z,90.35
2018-11-14T05:05:26.827Z,90.63
2018-11-14T05:07:56.602Z,90.32
2018-11-14T05:10:27.211Z,89.32
2018-11-14T05:12:57.026Z,89.75
2018-11-14T05:15:27.014Z,90.37
2018-11-14T05:17:57.056Z,90.54
2018-11-14T05:20:26.967Z,90.66
2018-11-14T05:22:56.745Z,90.73
2018-11-14T05:25:26.554Z,89.96
2018-11-14T05:27:56.302Z,89.28
2018-11-14T05:30:26.246Z,89.39
2018-11-14T05:32:56.018Z,89.49
2018-11-14T05:35:25.908Z,89.94
2018-11-14T05:37:55.738Z,89.80
2018-11-14T05:40:25.592Z,89.40
2018-11-14T05:42:55.366Z,89.73
2018-11-14T05:45:26.460Z,90.08
2018-11-14T05:47:56.308Z,90.75
2018-11-14T05:50:26.133Z,90.77
2018-11-14T05:52:55.908Z,90.02
2018-11-14T05:55:25.765Z,90.94
2018-11-14T05:57:55.674Z,90.75
2018-11-14T06:00:29.724Z,91.23
2018-11-14T06:03:00.356Z,91.00
2018-11-14T06:05:30.269Z,91.17
2018-11-14T06:08:00.064Z,90.85
2018-11-14T06:10:29.912Z,90.80
2018-11-14T06:12:59.726Z,90.63
2018-11-14T06:15:29.673Z,90.54
2018-11-14T06:17:59.726Z,90.49
2018-11-14T06:20:29.636Z,89.77
2018-11-14T06:22:59.414Z,90.06
2018-11-14T06:25:33.617Z,89.54
2018-11-14T06:28:04.610Z,88.75
2018-11-14T06:30:35.315Z,89.14
2018-11-14T06:33:06.302Z,89.60
2018-11-14T06:35:36.256Z,89.76
2018-11-14T06:38:07.111Z,89.70
2018-11-14T06:40:36.960Z,89.67
2018-11-14T06:43:06.760Z,89.22
2018-11-14T06:45:36.806Z,88.91
2018-11-14T06:48:07.030Z,93.65
2018-11-14T06:50:36.954Z,92.64
2018-11-14T06:53:07.576Z,90.28
2018-11-14T06:55:37.497Z,89.73
2018-11-14T06:58:07.348Z,87.60
2018-11-14T07:00:37.250Z,87.10
2018-11-14T07:03:08.108Z,87.17
2018-11-14T07:05:37.953Z,86.70
2018-11-14T07:08:08.007Z,84.96
2018-11-14T07:10:38.354Z,84.64
2018-11-14T07:13:09.366Z,85.44
2018-11-14T07:15:39.790Z,84.93
2018-11-14T07:18:10.877Z,85.64
2018-11-14T07:20:42.114Z,86.33
2018-11-14T07:23:11.923Z,86.16
2018-11-14T07:25:41.876Z,85.67
2018-11-14T07:28:11.672Z,86.15
2018-11-14T07:30:41.494Z,86.14
2018-11-14T07:33:12.024Z,87.24
2018-11-14T07:35:41.943Z,86.21
2018-11-14T07:38:37.354Z,87.10
2018-11-14T07:41:08.953Z,87.15
2018-11-14T07:43:39.368Z,87.87
2018-11-14T07:46:10.274Z,87.66
2018-11-14T07:48:40.467Z,88.38
2018-11-14T07:51:10.959Z,87.01
2018-11-14T07:53:41.558Z,86.94
2018-11-14T07:56:11.283Z,87.68
2018-11-14T07:58:41.982Z,87.58
2018-11-14T08:01:13.095Z,87.51
2018-11-14T08:03:42.814Z,86.78
2018-11-14T08:06:13.027Z,87.28
2018-11-14T08:08:43.140Z,86.16
2018-11-14T08:11:13.688Z,87.13
2018-11-14T08:13:45.221Z,87.65
2018-11-14T08:16:15.110Z,86.71
2018-11-14T08:18:45.834Z,87.00
2018-11-14T08:21:16.738Z,86.86
2018-11-14T08:23:46.747Z,86.62
2018-11-14T08:26:17.447Z,86.57
2018-11-14T08:28:47.632Z,86.35
2018-11-14T08:31:18.970Z,85.68
2018-11-14T08:33:49.419Z,84.72
2018-11-14T08:36:20.063Z,85.52
2018-11-14T08:38:51.187Z,85.72
2018-11-14T08:41:20.811Z,85.52
2018-11-14T08:43:50.534Z,86.56
2018-11-14T08:46:21.301Z,86.45
2018-11-14T08:48:51.305Z,86.22
2018-11-14T08:51:22.159Z,85.38
2018-11-14T08:53:53.059Z,85.92
2018-11-14T08:56:23.890Z,85.80
2018-11-14T08:58:54.733Z,86.17
2018-11-14T09:01:24.771Z,86.65
2018-11-14T09:03:55.169Z,89.62
2018-11-14T09:06:25.811Z,85.86
2018-11-14T09:08:55.496Z,85.85
2018-11-14T09:11:26.423Z,85.62
2018-11-14T09:13:57.693Z,85.57
2018-11-14T09:16:28.559Z,84.85
2018-11-14T09:18:59.003Z,85.33
2018-11-14T09:21:29.104Z,84.38
2018-11-14T09:23:59.581Z,84.87
2018-11-14T09:26:29.563Z,85.50
2018-11-14T09:29:00.276Z,86.37
2018-11-14T09:31:30.985Z,86.03
2018-11-14T09:34:01.522Z,85.57
2018-11-14T09:36:32.115Z,85.88
2018-11-14T09:39:02.906Z,85.68
2018-11-14T09:41:34.623Z,85.36
2018-11-14T09:44:04.576Z,85.24
2018-11-14T09:46:35.827Z,84.71
2018-11-14T09:49:06.352Z,84.39
2018-11-14T09:51:36.943Z,84.45
2018-11-14T09:54:07.308Z,83.32
2018-11-14T09:56:37.532Z,82.94
2018-11-14T09:59:08.234Z,81.39
2018-11-14T10:01:38.687Z,81.01
2018-11-14T10:04:10.673Z,81.23
2018-11-14T10:06:40.818Z,80.90
2018-11-14T10:09:13.170Z,80.58
2018-11-14T10:11:43.235Z,79.54
2018-11-14T10:14:12.968Z,78.41
2018-11-14T10:16:43.575Z,78.58
2018-11-14T10:19:14.427Z,78.31
2018-11-14T10:21:45.100Z,78.18
2018-11-14T10:24:15.162Z,78.05
2018-11-14T10:26:45.282Z,77.97
2018-11-14T10:29:15.402Z,78.82
2018-11-14T10:31:45.536Z,79.69
2018-11-14T10:34:16.506Z,78.45
2018-11-14T10:36:47.503Z,76.36
2018-11-14T10:39:17.746Z,76.46
2018-11-14T10:41:48.378Z,76.03
2018-11-14T10:44:18.614Z,75.20
2018-11-14T10:46:49.706Z,74.92
2018-11-14T10:49:20.182Z,74.32
2018-11-14T10:51:50.470Z,74.18
2018-11-14T10:54:21.579Z,75.31
2018-11-14T10:56:52.172Z,76.09
2018-11-14T10:59:21.883Z,75.99
2018-11-14T11:01:57.566Z,76.74
2018-11-14T11:04:32.523Z,77.37
2018-11-14T11:07:08.045Z,77.19
2018-11-14T11:09:43.378Z,76.61
2018-11-14T11:12:18.287Z,76.88
2018-11-14T11:14:53.691Z,78.77
2018-11-14T11:17:30.256Z,77.01
2018-11-14T11:20:00.337Z,75.62
2018-11-14T11:22:30.974Z,76.26
2018-11-14T11:25:01.391Z,76.01
2018-11-14T11:27:32.303Z,75.12
2018-11-14T11:30:02.923Z,75.63
2018-11-14T11:32:33.823Z,75.03
2018-11-14T11:35:03.557Z,75.11
2018-11-14T11:37:34.374Z,74.66
2018-11-14T11:40:05.183Z,75.07
2018-11-14T11:42:35.285Z,75.23
2018-11-14T11:45:05.531Z,74.20
2018-11-14T11:47:35.750Z,75.10
2018-11-14T11:50:06.983Z,74.58
2018-11-14T11:52:37.391Z,74.56
2018-11-14T11:55:07.805Z,74.90
2018-11-14T11:57:38.706Z,74.61
2018-11-14T12:00:12.527Z,75.29
2018-11-14T12:02:43.088Z,75.61
2018-11-14T12:05:14.815Z,74.82
2018-11-14T12:07:45.799Z,75.25
2018-11-14T12:10:16.773Z,76.60
2018-11-14T12:12:46.893Z,76.78
2018-11-14T12:15:17.793Z,76.89
2018-11-14T12:17:48.549Z,77.51
2018-11-14T12:20:18.523Z,77.60
2018-11-14T12:22:49.158Z,77.17
2018-11-14T12:25:19.655Z,77.37
2018-11-14T12:27:49.474Z,77.50
2018-11-14T12:30:20.172Z,77.19
2018-11-14T12:32:51.697Z,77.41
2018-11-14T12:35:21.686Z,77.35
2018-11-14T12:37:52.106Z,77.33
2018-11-14T12:40:22.711Z,76.67
2018-11-14T12:42:52.947Z,76.45
2018-11-14T12:45:22.966Z,76.65
2018-11-14T12:47:53.319Z,77.15
2018-11-14T12:50:24.139Z,76.98
2018-11-14T12:52:55.010Z,76.91
2018-11-14T12:55:25.363Z,76.84
2018-11-14T12:57:55.521Z,76.72
2018-11-14T13:00:25.527Z,75.98
2018-11-14T13:02:56.839Z,76.25
2018-11-14T13:05:28.124Z,76.67
2018-11-14T13:07:59.058Z,76.42
2018-11-14T13:10:30.017Z,76.37
2018-11-14T13:13:00.556Z,76.11
2018-11-14T13:15:30.526Z,76.84
2018-11-14T13:18:00.427Z,76.79
2018-11-14T13:20:30.441Z,76.69
2018-11-14T13:23:01.729Z,76.63
2018-11-14T13:25:31.698Z,76.58
2018-11-14T13:28:01.995Z,77.12
2018-11-14T13:30:32.427Z,77.23
2018-11-14T13:33:03.094Z,77.80
2018-11-14T13:35:32.939Z,77.97
2018-11-14T13:38:03.442Z,77.89
2018-11-14T13:40:34.162Z,78.35
2018-11-14T13:43:04.433Z,78.20
2018-11-14T13:45:35.138Z,78.38
2018-11-14T13:48:05.987Z,77.74
2018-11-14T13:50:36.155Z,77.71
2018-11-14T13:53:06.412Z,77.13
2018-11-14T13:55:37.642Z,77.61
2018-11-14T13:58:07.350Z,77.84
2018-11-14T14:00:37.734Z,77.48
2018-11-14T14:03:07.567Z,77.73
2018-11-14T14:05:37.586Z,77.35
2018-11-14T14:08:07.443Z,76.99
2018-11-14T14:10:37.325Z,76.80
2018-11-14T14:13:07.288Z,76.74
2018-11-14T14:15:37.113Z,76.78
2018-11-14T14:18:07.126Z,77.42
2018-11-14T14:20:37.053Z,77.28
2018-11-14T14:23:07.023Z,77.52
2018-11-14T14:25:36.942Z,78.12
2018-11-14T14:28:06.910Z,78.28
2018-11-14T14:30:36.943Z,78.43
2018-11-14T14:33:06.871Z,78.22
2018-11-14T14:35:36.842Z,77.91
2018-11-14T14:38:06.764Z,78.42
2018-11-14T14:40:36.647Z,78.64
2018-11-14T14:43:06.715Z,78.49
2018-11-14T14:45:36.607Z,78.55
2018-11-14T14:48:06.827Z,78.53
2018-11-14T14:50:36.748Z,78.61
2018-11-14T14:53:07.017Z,78.69
2018-11-14T14:55:36.928Z,78.40
2018-11-14T14:58:06.887Z,78.82
2018-11-14T15:00:36.823Z,78.52
2018-11-14T15:03:06.718Z,79.28
2018-11-14T15:05:36.659Z,79.22
2018-11-14T15:08:06.595Z,79.68
2018-11-14T15:10:36.486Z,79.72
2018-11-14T15:13:06.726Z,79.98
2018-11-14T15:15:36.695Z,80.21
2018-11-14T15:18:06.678Z,80.27
2018-11-14T15:20:36.562Z,80.32
2018-11-14T15:23:06.869Z,80.43
2018-11-14T15:25:36.783Z,80.33
2018-11-14T15:28:07.042Z,80.77
2018-11-14T15:30:36.965Z,80.62
2018-11-14T15:33:06.938Z,80.77
2018-11-14T15:35:36.903Z,80.74
2018-11-14T15:38:06.755Z,81.03
2018-11-14T15:40:36.666Z,80.77
2018-11-14T15:43:06.707Z,81.12
2018-11-14T15:45:36.547Z,81.04
2018-11-14T15:48:06.446Z,80.98
2018-11-14T15:50:36.907Z,81.25
2018-11-14T15:53:07.382Z,81.51
2018-11-14T15:55:37.303Z,81.24
2018-11-14T15:58:07.277Z,81.58
2018-11-14T16:00:37.163Z,81.61
2018-11-14T16:03:07.155Z,81.95
2018-11-14T16:05:37.079Z,82.00
2018-11-14T16:08:06.985Z,82.17
2018-11-14T16:10:36.865Z,82.08
2018-11-14T16:13:06.821Z,82.31
2018-11-14T16:15:37.614Z,82.37
2018-11-14T16:18:07.530Z,82.57
2018-11-14T16:20:37.313Z,82.48
2018-11-14T16:23:07.259Z,82.42
2018-11-14T16:25:37.143Z,82.83
2018-11-14T16:28:07.023Z,82.80
2018-11-14T16:30:37.767Z,82.71
2018-11-14T16:33:08.611Z,83.05
2018-11-14T16:35:38.456Z,83.40
2018-11-14T16:38:08.501Z,83.43
2018-11-14T16:40:38.390Z,83.27
2018-11-14T16:43:09.154Z,83.48
2018-11-14T16:45:39.066Z,83.61
2018-11-14T16:48:09.019Z,84.04
2018-11-14T16:50:39.019Z,84.04
2018-11-14T16:53:08.906Z,84.16
2018-11-14T16:55:38.807Z,84.44
2018-11-14T16:58:08.612Z,84.55
2018-11-14T17:00:38.379Z,84.94
2018-11-14T17:03:08.298Z,84.76
2018-11-14T17:05:38.266Z,85.05
2018-11-14T17:08:08.118Z,85.23
2018-11-14T17:10:38.055Z,85.62
2018-11-14T17:13:07.883Z,85.73
2018-11-14T17:15:37.782Z,85.17
2018-11-14T17:18:07.674Z,85.25
2018-11-14T17:20:37.609Z,85.59
2018-11-14T17:23:07.527Z,85.96
2018-11-14T17:25:37.419Z,85.77
2018-11-14T17:28:07.647Z,85.43
2018-11-14T17:30:37.546Z,85.42
2018-11-14T17:33:07.707Z,85.40
2018-11-14T17:35:37.626Z,85.17
2018-11-14T17:38:07.471Z,85.12
2018-11-14T17:40:37.382Z,85.11
2018-11-14T17:43:07.374Z,84.97
2018-11-14T17:45:37.274Z,84.80
2018-11-14T17:48:07.148Z,84.90
2018-11-14T17:50:37.168Z,84.83
2018-11-14T17:53:07.054Z,85.58
2018-11-14T17:55:37.078Z,85.85
2018-11-14T17:58:06.840Z,85.39
2018-11-14T18:00:36.788Z,84.99
2018-11-14T18:03:06.808Z,84.93
2018-11-14T18:05:36.746Z,85.21
2018-11-14T18:08:06.591Z,85.23
2018-11-14T18:10:36.528Z,85.38
2018-11-14T18:13:06.619Z,85.47
2018-11-14T18:15:36.488Z,85.18
2018-11-14T18:18:06.344Z,84.22
2018-11-14T18:20:36.311Z,84.51
2018-11-14T18:23:06.259Z,83.78
2018-11-14T18:25:36.277Z,84.03
2018-11-14T18:28:06.490Z,84.48
2018-11-14T18:30:36.482Z,84.61
2018-11-14T18:33:06.402Z,84.97
2018-11-14T18:35:36.479Z,85.22
2018-11-14T18:38:06.616Z,85.15
2018-11-14T18:40:36.888Z,84.22
2018-11-14T18:43:07.230Z,84.92
2018-11-14T18:45:37.479Z,85.16
2018-11-14T18:48:08.067Z,85.45
2018-11-14T18:50:38.010Z,85.40
2018-11-14T18:53:07.900Z,85.23
2018-11-14T18:55:37.846Z,84.69
2018-11-14T18:58:07.893Z,84.35
2018-11-14T19:00:37.895Z,84.61
2018-11-14T19:03:08.658Z,84.17
2018-11-14T19:05:38.691Z,83.85
2018-11-14T19:08:08.582Z,84.37
2018-11-14T19:10:38.690Z,84.21
2018-11-14T19:13:08.508Z,84.22
2018-11-14T19:15:38.404Z,83.74
2018-11-14T19:18:08.341Z,83.03
2018-11-14T19:20:38.267Z,83.09
2018-11-14T19:23:08.230Z,83.71
2018-11-14T19:25:38.663Z,83.36
2018-11-14T19:28:08.534Z,83.13
2018-11-14T19:30:39.322Z,83.33
2018-11-14T19:33:09.227Z,83.18
2018-11-14T19:35:39.478Z,83.00
2018-11-14T19:38:09.342Z,83.36
2018-11-14T19:40:40.212Z,87.17
2018-11-14T19:43:11.647Z,85.32
2018-11-14T19:45:42.274Z,83.83
2018-11-14T19:48:12.263Z,82.08
2018-11-14T19:50:42.411Z,81.32
2018-11-14T19:53:12.355Z,79.67
2018-11-14T19:55:42.577Z,80.46
2018-11-14T19:58:12.487Z,80.62
2018-11-14T20:00:43.525Z,81.17
2018-11-14T20:03:13.556Z,81.72
2018-11-14T20:05:43.464Z,82.46
2018-11-14T20:08:13.421Z,82.66
2018-11-14T20:10:43.305Z,83.10
2018-11-14T20:13:13.900Z,83.33
2018-11-14T20:15:43.839Z,83.52
2018-11-14T20:18:13.751Z,83.77
2018-11-14T20:20:43.742Z,84.09
2018-11-14T20:23:13.643Z,84.31
2018-11-14T20:25:43.701Z,83.69
2018-11-14T20:28:13.507Z,84.48
2018-11-14T20:30:43.466Z,84.42
2018-11-14T20:33:14.113Z,84.03
2018-11-14T20:35:44.143Z,84.17
2018-11-14T20:38:14.011Z,84.49
2018-11-14T20:40:44.230Z,84.68
2018-11-14T20:43:14.096Z,84.44
2018-11-14T20:45:43.944Z,84.58
2018-11-14T20:48:13.806Z,84.81
2018-11-14T20:50:43.783Z,84.50
2018-11-14T20:53:13.682Z,84.46
2018-11-14T20:55:43.554Z,84.56
2018-11-14T20:58:13.467Z,84.40
2018-11-14T21:00:43.402Z,84.15
2018-11-14T21:03:13.318Z,84.20
2018-11-14T21:05:43.387Z,84.44
2018-11-14T21:08:17.874Z,84.39
2018-11-14T21:10:48.756Z,84.50
2018-11-14T21:13:19.431Z,84.36
2018-11-14T21:15:49.338Z,84.43
2018-11-14T21:18:19.176Z,84.39
2018-11-14T21:20:49.031Z,84.52
2018-11-14T21:23:18.962Z,84.80
2018-11-14T21:25:48.845Z,84.35
2018-11-14T21:28:18.691Z,84.44
2018-11-14T21:30:48.582Z,84.24
2018-11-14T21:33:18.410Z,83.90
2018-11-14T21:35:48.327Z,83.45
2018-11-14T21:38:18.137Z,83.26
2018-11-14T21:40:47.970Z,83.53
2018-11-14T21:43:17.912Z,83.52
2018-11-14T21:45:47.831Z,83.37
2018-11-14T21:48:18.584Z,83.09
2018-11-14T21:50:48.390Z,83.60
2018-11-14T21:53:18.531Z,84.02
2018-11-14T21:55:48.657Z,83.40
2018-11-14T21:58:18.719Z,83.61
2018-11-14T22:00:49.028Z,83.37
2018-11-14T22:03:19.013Z,83.23
2018-11-14T22:05:49.251Z,83.94
2018-11-14T22:08:19.112Z,84.49
2018-11-14T22:10:49.431Z,84.99
2018-11-14T22:13:19.313Z,84.98
2018-11-14T22:15:49.038Z,85.04
2018-11-14T22:18:18.869Z,85.23
2018-11-14T22:20:48.739Z,85.38
2018-11-14T22:23:18.633Z,84.97
2018-11-14T22:25:48.470Z,85.12
2018-11-14T22:28:18.335Z,84.93
2018-11-14T22:30:48.069Z,85.03
2018-11-14T22:33:17.875Z,84.96
2018-11-14T22:35:47.742Z,85.02
2018-11-14T22:38:17.466Z,85.11
2018-11-14T22:40:47.289Z,84.62
2018-11-14T22:43:17.216Z,84.58
2018-11-14T22:45:47.072Z,84.89
2018-11-14T22:48:16.871Z,84.97
2018-11-14T22:50:46.662Z,85.31
2018-11-14T22:53:16.491Z,85.93
2018-11-14T22:55:46.331Z,86.25
2018-11-14T22:58:16.181Z,86.10
2018-11-14T23:00:47.102Z,86.24
2018-11-14T23:03:17.429Z,86.55
2018-11-14T23:05:47.356Z,86.34
2018-11-14T23:08:17.180Z,86.47
2018-11-14T23:10:46.975Z,86.39
2018-11-14T23:13:16.778Z,86.51
2018-11-14T23:15:46.635Z,85.92
2018-11-14T23:18:16.397Z,86.15
2018-11-14T23:20:46.134Z,86.34
2018-11-14T23:23:16.025Z,86.65
2018-11-14T23:25:45.730Z,86.60
2018-11-14T23:28:15.468Z,86.85
2018-11-14T23:30:45.126Z,86.91
2018-11-14T23:33:14.884Z,86.82
2018-11-14T23:35:44.600Z,86.65
2018-11-14T23:38:16.318Z,86.45
2018-11-14T23:40:46.132Z,86.43
2018-11-14T23:43:16.047Z,86.29
2018-11-14T23:45:45.876Z,86.30
2018-11-14T23:48:15.776Z,86.81
2018-11-14T23:50:45.677Z,86.98
2018-11-14T23:53:15.545Z,86.73
2018-11-14T23:55:45.357Z,86.92
2018-11-14T23:58:15.236Z,87.06
